Archival Weather

Moundou

Moundou, Chad (FTTD)

Report from: Friday, April 19, 2024 12:00 PM WAT
Current time: Monday, July 22, 2024 11:03 AM WAT

Current weather – Weather history – Daily summaries
Weather forecast

Temperature36.0°C (96.8°F)
Heat index38.9°C (102.1°F)
Dew point20.0°C (68.0°F)
Winds 4 kts (2.1 m/s, 4.6 mph) Southwest (220°)
Clouds Sky clear
Altimeter29.85 in.Hg (1011 mB)
Relative humidity39 %
Density altitude2,770 ft. (844 m)
Remarks Ceiling and visibility OK
Flight conditions Visual Meteorological Conditions
Raw dataFTTD 191100Z 22004KT CAVOK 36/20 Q1011
An error has occurred. This application may no longer respond until reloaded. Reload 🗙